Terminal Aerodrome Forecast
Issued by NWS

Home | Current Version | Previous Version | Graphics & Text | Print | Product List | Glossary On
Versions: 1 2 3 4 5 6 7 8 9 10 11 12 13 14 15 16 17 18
000
FTUS43 KMPX 231257 AAB
TAFRWF
TAF AMD
KRWF 231257Z 2313/2412 11010KT 6SM BR BKN004 OVC035
      TEMPO 2314/2316 3SM TSRA SCT004 OVC020CB
     FM231600 16012G18KT P6SM BKN020 BKN110
     FM232200 18016G22KT P6SM VCSH BKN050
      TEMPO 2323/2401 1SM TSRA BKN025CB
     FM240130 22011KT P6SM SCT040 BKN070
     FM240700 17008KT P6SM SKC=

USA.gov is the U.S. government's official web portal to all federal, state and local government web resources and services.